createdAt,value
2019-05-06T00:00:13.958Z,24.47
2019-05-06T00:02:44.237Z,24.70
2019-05-06T00:05:14.920Z,34.10
2019-05-06T00:07:54.407Z,39.87
2019-05-06T00:10:31.392Z,38.27
2019-05-06T00:13:01.591Z,40.13
2019-05-06T00:15:34.087Z,40.20
2019-05-06T00:18:04.494Z,37.40
2019-05-06T00:20:35.184Z,45.27
2019-05-06T00:23:11.069Z,23.73
2019-05-06T00:26:15.586Z,33.53
2019-05-06T00:28:53.891Z,13.37
2019-05-06T00:31:24.760Z,19.10
2019-05-06T00:33:56.008Z,7.33
2019-05-06T00:36:26.509Z,13.80
2019-05-06T00:39:00.105Z,7.57
2019-05-06T00:41:36.361Z,9.50
2019-05-06T00:44:05.499Z,13.50
2019-05-06T00:46:35.624Z,9.40
2019-05-06T00:49:05.981Z,12.57
2019-05-06T00:51:36.103Z,7.33
2019-05-06T00:54:14.862Z,20.33
2019-05-06T00:56:44.907Z,12.07
2019-05-06T00:59:15.101Z,9.30
2019-05-06T01:01:45.207Z,10.73
2019-05-06T01:04:15.711Z,7.50
2019-05-06T01:06:46.735Z,11.13
2019-05-06T01:09:18.937Z,15.93
2019-05-06T01:11:51.574Z,13.27
2019-05-06T01:14:35.195Z,31.53
2019-05-06T01:17:05.553Z,3.90
2019-05-06T01:19:36.025Z,9.57
2019-05-06T01:22:06.599Z,16.13
2019-05-06T01:24:36.892Z,22.63
2019-05-06T01:27:07.035Z,30.10
2019-05-06T01:29:37.108Z,32.83
2019-05-06T01:32:07.487Z,15.63
2019-05-06T01:34:37.760Z,24.73
2019-05-06T01:37:08.110Z,12.23
2019-05-06T01:40:00.101Z,40.20
2019-05-06T01:42:34.646Z,31.33
2019-05-06T01:45:05.984Z,26.23
2019-05-06T01:47:36.319Z,23.67
2019-05-06T01:50:07.587Z,10.97
2019-05-06T01:52:37.856Z,17.60
2019-05-06T01:55:08.345Z,13.33
2019-05-06T01:57:38.600Z,4.27
2019-05-06T02:00:09.461Z,15.50
2019-05-06T02:02:39.741Z,2.73
2019-05-06T02:05:10.107Z,10.50
2019-05-06T02:07:40.352Z,4.67
2019-05-06T02:10:11.039Z,17.77
2019-05-06T02:12:41.273Z,5.83
2019-05-06T02:15:11.996Z,10.60
2019-05-06T02:17:44.086Z,3.97
2019-05-06T02:20:14.223Z,6.33
2019-05-06T02:23:06.158Z,13.30
2019-05-06T02:25:44.672Z,4.60
2019-05-06T02:28:15.113Z,4.27
2019-05-06T02:31:05.321Z,7.03
2019-05-06T02:34:06.911Z,8.43
2019-05-06T02:37:14.739Z,2.57
2019-05-06T02:39:45.437Z,2.50
2019-05-06T02:42:15.642Z,8.53
2019-05-06T02:44:45.779Z,5.07
2019-05-06T02:47:34.059Z,3.53
2019-05-06T02:50:06.515Z,5.90
2019-05-06T02:52:36.672Z,18.30
2019-05-06T02:55:07.480Z,7.97
2019-05-06T02:57:37.994Z,5.77
2019-05-06T03:00:13.141Z,6.23
2019-05-06T03:02:47.056Z,6.87
2019-05-06T03:05:14.862Z,12.57
2019-05-06T03:07:45.037Z,6.37
2019-05-06T03:10:16.409Z,11.60
2019-05-06T03:12:46.728Z,10.23
2019-05-06T03:15:18.137Z,3.67
2019-05-06T03:17:49.176Z,20.63
2019-05-06T03:20:43.887Z,7.33
2019-05-06T03:23:15.072Z,3.70
2019-05-06T03:25:45.481Z,8.90
2019-05-06T03:28:15.537Z,16.23
2019-05-06T03:30:46.218Z,12.97
2019-05-06T03:33:40.094Z,3.93
2019-05-06T03:36:00.391Z,8.40
2019-05-06T03:38:22.927Z,11.13
2019-05-06T03:40:53.756Z,6.63
2019-05-06T03:43:23.954Z,28.43
2019-05-06T03:46:14.316Z,7.40
2019-05-06T03:48:46.198Z,10.50
2019-05-06T03:51:16.163Z,5.83
2019-05-06T03:53:46.542Z,8.97
2019-05-06T03:56:20.073Z,7.47
2019-05-06T03:58:53.709Z,13.87
2019-05-06T04:01:24.302Z,9.83
2019-05-06T04:03:57.200Z,26.27
2019-05-06T04:06:27.386Z,34.60
2019-05-06T04:08:58.445Z,15.37
2019-05-06T04:11:29.052Z,49.70
2019-05-06T04:14:02.529Z,38.77
2019-05-06T04:16:44.225Z,65.50
2019-05-06T04:19:23.685Z,51.40
2019-05-06T04:22:15.280Z,47.27
2019-05-06T04:24:55.733Z,46.67
2019-05-06T04:27:44.260Z,96.83
2019-05-06T04:30:14.723Z,104.30
2019-05-06T04:32:45.197Z,74.00
2019-05-06T04:35:15.377Z,52.23
2019-05-06T04:37:45.570Z,81.57
2019-05-06T04:40:15.884Z,113.07
2019-05-06T04:42:46.040Z,45.77
2019-05-06T04:45:17.407Z,57.97
2019-05-06T04:47:47.915Z,80.17
2019-05-06T04:50:18.249Z,107.83
2019-05-06T04:53:04.870Z,150.33
2019-05-06T04:55:35.757Z,102.83
2019-05-06T04:58:07.083Z,60.63
2019-05-06T05:00:38.140Z,157.67
2019-05-06T05:03:08.302Z,76.57
2019-05-06T05:05:38.417Z,99.60
2019-05-06T05:08:08.629Z,69.50
2019-05-06T05:11:06.928Z,69.77
2019-05-06T05:13:59.075Z,53.33
2019-05-06T05:16:52.824Z,66.20
2019-05-06T05:19:23.308Z,118.70
2019-05-06T05:21:56.747Z,121.73
2019-05-06T05:24:27.740Z,78.77
2019-05-06T05:26:58.139Z,81.20
2019-05-06T05:29:28.271Z,38.40
2019-05-06T05:31:58.693Z,34.60
2019-05-06T05:34:38.074Z,46.20
2019-05-06T05:37:02.894Z,44.37
2019-05-06T05:39:33.271Z,52.67
2019-05-06T05:42:16.135Z,22.07
2019-05-06T05:44:46.987Z,46.03
2019-05-06T05:47:17.009Z,44.77
2019-05-06T05:50:04.877Z,46.57
2019-05-06T05:52:35.168Z,35.43
2019-05-06T05:55:05.932Z,22.07
2019-05-06T05:57:36.243Z,38.10
2019-05-06T06:00:07.230Z,32.60
2019-05-06T06:02:38.261Z,45.23
2019-05-06T06:05:08.654Z,45.27
2019-05-06T06:07:38.954Z,29.73
2019-05-06T06:10:34.849Z,27.57
2019-05-06T06:13:05.600Z,37.73
2019-05-06T06:16:03.744Z,31.97
2019-05-06T06:18:58.959Z,40.17
2019-05-06T06:21:53.641Z,44.33
2019-05-06T06:24:28.040Z,39.00
2019-05-06T06:26:58.300Z,36.63
2019-05-06T06:29:29.615Z,8.27
2019-05-06T06:32:18.254Z,31.80
2019-05-06T06:35:11.432Z,13.53
2019-05-06T06:38:04.921Z,32.63
2019-05-06T06:40:35.224Z,14.43
2019-05-06T06:43:09.584Z,11.47
2019-05-06T06:45:39.594Z,30.27
2019-05-06T06:48:12.217Z,36.43
2019-05-06T06:50:42.636Z,16.30
2019-05-06T06:53:13.052Z,11.60
2019-05-06T06:55:43.735Z,11.73
2019-05-06T06:58:33.744Z,9.07
2019-05-06T07:01:18.224Z,20.20
2019-05-06T07:03:52.920Z,11.77
2019-05-06T07:06:34.880Z,10.37
2019-05-06T07:09:07.256Z,9.83
2019-05-06T07:11:37.509Z,19.20
2019-05-06T07:14:08.176Z,7.93
2019-05-06T07:16:38.495Z,8.53
2019-05-06T07:19:08.662Z,18.87
2019-05-06T07:21:48.026Z,19.83
2019-05-06T07:24:18.044Z,10.70
2019-05-06T07:26:52.592Z,6.13
2019-05-06T07:29:26.012Z,6.80
2019-05-06T07:31:54.923Z,9.07
2019-05-06T07:34:25.037Z,11.13
2019-05-06T07:36:55.309Z,12.70
2019-05-06T07:39:25.378Z,12.80
2019-05-06T07:41:58.653Z,8.83
2019-05-06T07:44:52.749Z,12.10
2019-05-06T07:47:52.911Z,8.60
2019-05-06T07:50:22.433Z,6.63
2019-05-06T07:53:13.335Z,14.47
2019-05-06T07:55:43.710Z,5.33
2019-05-06T07:58:13.989Z,15.40
2019-05-06T08:00:44.265Z,7.97
2019-05-06T08:03:14.706Z,13.20
2019-05-06T08:05:54.704Z,6.23
2019-05-06T08:08:17.809Z,14.87
2019-05-06T08:10:48.093Z,7.27
2019-05-06T08:13:18.368Z,13.33
2019-05-06T08:15:48.434Z,8.03
2019-05-06T08:18:18.538Z,12.57
2019-05-06T08:20:49.387Z,13.07
2019-05-06T08:23:25.856Z,6.30
2019-05-06T08:26:09.101Z,15.63
2019-05-06T08:28:38.630Z,12.73
2019-05-06T08:31:02.326Z,22.03
2019-05-06T08:33:32.826Z,15.23
2019-05-06T08:36:11.598Z,13.73
2019-05-06T08:38:54.519Z,14.37
2019-05-06T08:41:24.756Z,13.77
2019-05-06T08:43:55.879Z,15.83
2019-05-06T08:46:26.137Z,11.43
2019-05-06T08:48:56.442Z,10.40
2019-05-06T08:51:49.036Z,8.60
2019-05-06T08:54:29.001Z,15.63
2019-05-06T08:56:59.270Z,7.50
2019-05-06T08:59:31.943Z,15.23
2019-05-06T09:02:03.139Z,9.40
2019-05-06T09:04:33.719Z,6.83
2019-05-06T09:07:04.264Z,5.03
2019-05-06T09:09:34.465Z,8.67
2019-05-06T09:12:05.060Z,9.33
2019-05-06T09:14:35.401Z,7.57
2019-05-06T09:17:06.696Z,13.70
2019-05-06T09:19:36.922Z,15.67
2019-05-06T09:22:07.117Z,13.23
2019-05-06T09:24:37.192Z,10.23
2019-05-06T09:27:18.009Z,29.37
2019-05-06T09:29:53.416Z,12.13
2019-05-06T09:32:36.066Z,10.97
2019-05-06T09:35:03.858Z,28.57
2019-05-06T09:37:34.185Z,12.50
2019-05-06T09:40:04.881Z,8.33
2019-05-06T09:42:35.477Z,11.10
2019-05-06T09:45:06.421Z,16.23
2019-05-06T09:47:45.548Z,16.33
2019-05-06T09:50:17.720Z,11.30
2019-05-06T09:52:48.017Z,26.00
2019-05-06T09:55:43.104Z,13.87
2019-05-06T09:58:13.849Z,24.83
2019-05-06T10:00:46.057Z,15.70
2019-05-06T10:03:16.120Z,9.80
2019-05-06T10:05:46.259Z,19.03
2019-05-06T10:08:16.519Z,19.97
2019-05-06T10:10:56.186Z,15.80
2019-05-06T10:13:18.508Z,12.50
2019-05-06T10:15:49.262Z,9.20
2019-05-06T10:18:19.744Z,8.77
2019-05-06T10:20:50.016Z,10.37
2019-05-06T10:23:22.230Z,23.00
2019-05-06T10:25:52.309Z,16.60
2019-05-06T10:28:45.552Z,19.27
2019-05-06T10:31:17.740Z,13.07
2019-05-06T10:34:05.672Z,12.80
2019-05-06T10:36:48.695Z,9.87
2019-05-06T10:39:22.940Z,18.77
2019-05-06T10:42:13.010Z,18.03
2019-05-06T10:45:29.433Z,17.63
2019-05-06T10:47:59.556Z,12.33
2019-05-06T10:50:33.425Z,13.07
2019-05-06T10:53:34.731Z,22.43
2019-05-06T10:56:23.604Z,9.33
2019-05-06T10:58:54.162Z,23.97
2019-05-06T11:01:30.087Z,9.20
2019-05-06T11:04:02.687Z,33.60
2019-05-06T11:06:33.673Z,17.57
2019-05-06T11:09:05.489Z,7.33
2019-05-06T11:11:38.662Z,24.70
2019-05-06T11:14:07.844Z,21.83
2019-05-06T11:16:38.025Z,19.17
2019-05-06T11:19:08.088Z,4.80
2019-05-06T11:21:38.672Z,9.53
2019-05-06T11:24:08.935Z,15.10
2019-05-06T11:26:39.157Z,11.60
2019-05-06T11:29:19.743Z,18.87
2019-05-06T11:32:08.794Z,24.87
2019-05-06T11:34:47.890Z,18.17
2019-05-06T11:37:54.198Z,9.03
2019-05-06T11:40:23.592Z,17.30
2019-05-06T11:42:53.860Z,13.13
2019-05-06T11:45:24.009Z,11.67
2019-05-06T11:47:55.922Z,5.97
2019-05-06T11:50:25.776Z,8.63
2019-05-06T11:52:57.119Z,14.23
2019-05-06T11:55:32.513Z,3.33
2019-05-06T11:57:59.545Z,10.73
2019-05-06T12:00:36.034Z,8.63
2019-05-06T12:03:06.461Z,20.53
2019-05-06T12:05:36.734Z,12.37
2019-05-06T12:08:08.389Z,17.70
2019-05-06T12:10:38.594Z,20.30
2019-05-06T12:13:09.013Z,18.65
2019-05-06T12:15:39.278Z,14.07
2019-05-06T12:18:12.392Z,6.93
2019-05-06T12:20:42.619Z,7.93
2019-05-06T12:23:15.591Z,7.10
2019-05-06T12:25:46.219Z,17.97
2019-05-06T12:28:17.639Z,6.17
2019-05-06T12:30:47.765Z,11.83
2019-05-06T12:33:37.019Z,17.17
2019-05-06T12:36:20.934Z,12.60
2019-05-06T12:39:09.932Z,6.40
2019-05-06T12:41:58.850Z,11.03
2019-05-06T12:44:32.134Z,14.57
2019-05-06T12:47:13.465Z,17.10
2019-05-06T12:49:43.707Z,6.50
2019-05-06T12:52:13.791Z,11.23
2019-05-06T12:54:43.937Z,21.87
2019-05-06T12:57:14.056Z,32.03
2019-05-06T12:59:44.077Z,10.30
2019-05-06T13:02:14.446Z,20.03
2019-05-06T13:04:55.316Z,23.07
2019-05-06T13:07:23.736Z,11.97
2019-05-06T13:09:54.149Z,15.10
2019-05-06T13:12:27.142Z,9.50
2019-05-06T13:14:57.320Z,21.63
2019-05-06T13:17:32.771Z,21.63
2019-05-06T13:20:02.982Z,19.03
2019-05-06T13:22:47.002Z,14.83
2019-05-06T13:25:17.319Z,19.73
2019-05-06T13:27:48.412Z,10.53
2019-05-06T13:30:19.164Z,11.50
2019-05-06T13:32:54.152Z,31.63
2019-05-06T13:35:24.479Z,20.83
2019-05-06T13:37:54.661Z,13.40
2019-05-06T13:40:27.120Z,18.47
2019-05-06T13:43:14.080Z,12.87
2019-05-06T13:45:46.121Z,20.93
2019-05-06T13:48:38.497Z,25.93
2019-05-06T13:51:12.496Z,20.33
2019-05-06T13:53:46.061Z,24.37
2019-05-06T13:56:15.495Z,16.80
2019-05-06T13:58:45.509Z,14.90
2019-05-06T14:01:18.589Z,24.30
2019-05-06T14:03:48.654Z,19.17
2019-05-06T14:06:18.892Z,19.13
2019-05-06T14:08:48.901Z,23.63
2019-05-06T14:11:19.045Z,29.90
2019-05-06T14:13:49.219Z,23.27
2019-05-06T14:16:19.213Z,22.43
2019-05-06T14:18:49.296Z,17.30
2019-05-06T14:21:19.439Z,11.40
2019-05-06T14:23:49.512Z,34.93
2019-05-06T14:26:34.772Z,13.57
2019-05-06T14:29:08.433Z,25.40
2019-05-06T14:31:52.325Z,17.97
2019-05-06T14:34:22.944Z,28.60
2019-05-06T14:36:53.546Z,17.10
2019-05-06T14:39:47.579Z,13.97
2019-05-06T14:41:58.976Z,31.77
2019-05-06T14:44:29.023Z,17.25
2019-05-06T14:47:09.400Z,21.53
2019-05-06T14:49:39.682Z,24.40
2019-05-06T14:52:09.980Z,32.87
2019-05-06T14:54:54.574Z,19.47
2019-05-06T14:57:25.857Z,25.97
2019-05-06T14:59:56.150Z,29.77
2019-05-06T15:02:27.757Z,21.10
2019-05-06T15:04:58.107Z,21.93
2019-05-06T15:07:28.240Z,25.53
2019-05-06T15:10:16.429Z,24.33
2019-05-06T15:12:30.193Z,24.03
2019-05-06T15:15:00.291Z,23.93
2019-05-06T15:17:32.774Z,24.10
2019-05-06T15:20:02.939Z,22.67
2019-05-06T15:22:33.444Z,22.33
2019-05-06T15:25:03.628Z,20.07
2019-05-06T15:27:33.843Z,22.13
2019-05-06T15:30:06.784Z,23.13
2019-05-06T15:32:38.471Z,27.37
2019-05-06T15:35:18.823Z,19.23
2019-05-06T15:37:53.400Z,26.33
2019-05-06T15:40:32.905Z,32.13
2019-05-06T15:42:56.721Z,18.97
2019-05-06T15:45:29.932Z,27.57
2019-05-06T15:48:02.527Z,24.20
2019-05-06T15:50:35.354Z,13.83
2019-05-06T15:53:05.910Z,30.20
2019-05-06T15:55:35.913Z,22.80
2019-05-06T15:58:06.883Z,19.90
2019-05-06T16:00:37.181Z,17.27
2019-05-06T16:03:07.142Z,20.83
2019-05-06T16:05:37.352Z,18.63
2019-05-06T16:08:07.520Z,15.37
2019-05-06T16:10:51.321Z,23.97
2019-05-06T16:13:10.016Z,36.07
2019-05-06T16:15:42.214Z,20.07
2019-05-06T16:18:13.010Z,27.67
2019-05-06T16:20:43.031Z,15.50
2019-05-06T16:23:23.109Z,17.17
2019-05-06T16:25:53.280Z,13.53
2019-05-06T16:28:23.465Z,16.53
2019-05-06T16:30:53.725Z,24.43
2019-05-06T16:33:24.412Z,21.87
2019-05-06T16:35:54.674Z,10.77
2019-05-06T16:38:24.646Z,15.50
2019-05-06T16:41:09.076Z,14.73
2019-05-06T16:43:26.452Z,13.77
2019-05-06T16:45:56.512Z,23.30
2019-05-06T16:48:26.720Z,12.47
2019-05-06T16:50:56.913Z,11.00
2019-05-06T16:53:30.030Z,12.80
2019-05-06T16:56:22.138Z,11.50
2019-05-06T16:58:55.637Z,23.63
2019-05-06T17:01:26.015Z,8.17
2019-05-06T17:04:17.102Z,20.60
2019-05-06T17:06:47.256Z,23.30
2019-05-06T17:09:23.654Z,12.80
2019-05-06T17:11:48.977Z,20.00
2019-05-06T17:14:18.983Z,10.57
2019-05-06T17:16:49.371Z,18.80
2019-05-06T17:19:19.398Z,12.40
2019-05-06T17:21:49.643Z,25.23
2019-05-06T17:24:21.924Z,12.83
2019-05-06T17:26:55.999Z,14.70
2019-05-06T17:29:42.802Z,14.10
2019-05-06T17:32:24.074Z,25.93
2019-05-06T17:34:57.379Z,13.30
2019-05-06T17:38:04.062Z,16.60
2019-05-06T17:40:34.144Z,27.53
2019-05-06T17:43:04.233Z,9.37
2019-05-06T17:46:08.597Z,18.20
2019-05-06T17:48:58.006Z,17.30
2019-05-06T17:51:33.860Z,11.60
2019-05-06T17:54:05.743Z,9.77
2019-05-06T17:56:36.016Z,8.53
2019-05-06T17:59:06.257Z,13.30
2019-05-06T18:01:42.843Z,13.60
2019-05-06T18:04:13.651Z,10.23
2019-05-06T18:06:43.785Z,26.67
2019-05-06T18:09:13.887Z,14.17
2019-05-06T18:11:57.146Z,12.90
2019-05-06T18:14:15.601Z,10.77
2019-05-06T18:16:45.661Z,11.57
2019-05-06T18:19:15.964Z,15.30
2019-05-06T18:21:46.292Z,15.53
2019-05-06T18:24:16.677Z,14.47
2019-05-06T18:26:47.052Z,14.60
2019-05-06T18:29:17.300Z,17.07
2019-05-06T18:31:47.412Z,12.23
2019-05-06T18:34:17.688Z,7.43
2019-05-06T18:36:47.982Z,6.50
2019-05-06T18:39:18.098Z,7.53
2019-05-06T18:41:48.462Z,12.77
2019-05-06T18:44:18.876Z,10.10
2019-05-06T18:46:48.969Z,15.53
2019-05-06T18:49:19.483Z,9.57
2019-05-06T18:51:51.390Z,11.63
2019-05-06T18:54:22.083Z,9.73
2019-05-06T18:56:52.450Z,26.90
2019-05-06T18:59:23.189Z,9.30
2019-05-06T19:01:53.858Z,8.37
2019-05-06T19:04:52.153Z,13.53
2019-05-06T19:07:22.211Z,15.03
2019-05-06T19:09:57.471Z,13.27
2019-05-06T19:12:34.621Z,12.87
2019-05-06T19:14:59.840Z,18.43
2019-05-06T19:17:30.246Z,15.23
2019-05-06T19:20:02.832Z,10.63
2019-05-06T19:22:33.124Z,13.93
2019-05-06T19:25:03.526Z,8.77
2019-05-06T19:27:33.856Z,12.93
2019-05-06T19:30:10.070Z,14.73
2019-05-06T19:32:42.387Z,10.43
2019-05-06T19:35:13.339Z,13.33
2019-05-06T19:37:45.863Z,19.50
2019-05-06T19:40:19.199Z,12.30
2019-05-06T19:42:52.594Z,9.17
2019-05-06T19:45:22.469Z,8.63
2019-05-06T19:47:53.329Z,7.50
2019-05-06T19:50:25.972Z,10.03
2019-05-06T19:52:57.753Z,5.57
2019-05-06T19:55:27.751Z,11.23
2019-05-06T19:57:57.753Z,17.97
2019-05-06T20:00:27.907Z,6.43
2019-05-06T20:03:02.752Z,7.27
2019-05-06T20:06:02.571Z,8.33
2019-05-06T20:08:45.756Z,5.63
2019-05-06T20:11:29.933Z,10.63
2019-05-06T20:14:02.080Z,8.33
2019-05-06T20:16:41.967Z,4.07
2019-05-06T20:19:29.775Z,10.73
2019-05-06T20:21:47.527Z,12.77
2019-05-06T20:24:18.012Z,4.53
2019-05-06T20:26:54.807Z,8.00
2019-05-06T20:29:26.544Z,3.80
2019-05-06T20:31:57.616Z,22.83
2019-05-06T20:34:32.870Z,8.10
2019-05-06T20:37:03.951Z,12.13
2019-05-06T20:39:34.464Z,9.90
2019-05-06T20:42:05.066Z,12.60
2019-05-06T20:44:35.203Z,8.83
2019-05-06T20:47:05.349Z,11.33
2019-05-06T20:49:35.449Z,21.07
2019-05-06T20:52:05.718Z,29.20
2019-05-06T20:54:36.108Z,31.07
2019-05-06T20:57:06.265Z,20.47
2019-05-06T20:59:36.459Z,13.00
2019-05-06T21:02:07.194Z,13.87
2019-05-06T21:04:37.522Z,12.10
2019-05-06T21:07:07.452Z,12.33
2019-05-06T21:09:37.632Z,19.23
2019-05-06T21:12:07.585Z,14.93
2019-05-06T21:14:37.679Z,18.93
2019-05-06T21:17:07.702Z,6.20
2019-05-06T21:19:37.834Z,4.57
2019-05-06T21:22:08.017Z,14.47
2019-05-06T21:24:38.338Z,10.40
2019-05-06T21:27:08.604Z,4.80
2019-05-06T21:29:38.808Z,15.23
2019-05-06T21:32:08.816Z,5.43
2019-05-06T21:34:38.835Z,7.10
2019-05-06T21:37:09.189Z,11.80
2019-05-06T21:39:39.251Z,10.50
2019-05-06T21:42:09.272Z,7.77
2019-05-06T21:44:39.311Z,11.50
2019-05-06T21:47:09.356Z,9.50
2019-05-06T21:49:39.456Z,12.07
2019-05-06T21:52:09.749Z,10.90
2019-05-06T21:54:39.797Z,9.07
2019-05-06T21:57:12.124Z,12.70
2019-05-06T21:59:42.748Z,14.50
2019-05-06T22:02:14.457Z,10.13
2019-05-06T22:04:44.531Z,10.80
2019-05-06T22:07:14.652Z,9.60
2019-05-06T22:09:45.664Z,11.00
2019-05-06T22:12:16.402Z,24.50
2019-05-06T22:14:46.764Z,14.77
2019-05-06T22:17:17.284Z,22.97
2019-05-06T22:19:47.300Z,19.10
2019-05-06T22:22:20.518Z,9.43
2019-05-06T22:24:55.199Z,11.43
2019-05-06T22:27:22.811Z,33.37
2019-05-06T22:29:52.977Z,15.20
2019-05-06T22:32:23.297Z,8.83
2019-05-06T22:34:53.443Z,35.27
2019-05-06T22:37:23.604Z,23.40
2019-05-06T22:39:53.875Z,22.63
2019-05-06T22:42:24.965Z,15.60
2019-05-06T22:44:55.235Z,16.17
2019-05-06T22:47:25.423Z,17.37
2019-05-06T22:49:55.463Z,14.23
2019-05-06T22:52:25.484Z,11.63
2019-05-06T22:54:56.088Z,19.30
2019-05-06T22:57:26.201Z,19.57
2019-05-06T22:59:56.225Z,18.23
2019-05-06T23:02:35.172Z,22.67
2019-05-06T23:05:05.953Z,19.70
2019-05-06T23:07:36.316Z,19.83
2019-05-06T23:10:07.128Z,13.53
2019-05-06T23:12:37.416Z,22.90
2019-05-06T23:15:08.999Z,27.33
2019-05-06T23:17:39.141Z,9.67
2019-05-06T23:20:09.421Z,17.33
2019-05-06T23:22:39.429Z,14.03
2019-05-06T23:25:12.404Z,14.47
2019-05-06T23:27:44.224Z,26.67
2019-05-06T23:30:14.372Z,23.80
2019-05-06T23:32:44.508Z,15.17
2019-05-06T23:35:14.965Z,16.80
2019-05-06T23:38:22.957Z,22.70
2019-05-06T23:41:27.533Z,23.77
2019-05-06T23:44:45.055Z,28.00
2019-05-06T23:47:42.242Z,22.00
2019-05-06T23:50:47.807Z,18.10
2019-05-06T23:53:53.147Z,24.43
2019-05-06T23:56:43.249Z,14.47
2019-05-06T23:59:14.899Z,24.37
